sensor_id;sensor_type;location;lat;lon;timestamp;pressure;altitude;pressure_sealevel;temperature;humidity
83633;BME280;73595;53.084;6.696;2023-11-19T00:02:06;100645.94;;;10.23;100.00
83633;BME280;73595;53.084;6.696;2023-11-19T00:04:33;100637.00;;;10.24;100.00
83633;BME280;73595;53.084;6.696;2023-11-19T00:06:58;100640.09;;;10.36;100.00
83633;BME280;73595;53.084;6.696;2023-11-19T00:09:28;100639.44;;;10.34;100.00
83633;BME280;73595;53.084;6.696;2023-11-19T00:11:53;100635.94;;;10.41;100.00
83633;BME280;73595;53.084;6.696;2023-11-19T00:14:19;100627.16;;;10.41;100.00
83633;BME280;73595;53.084;6.696;2023-11-19T00:16:44;100629.47;;;10.44;100.00
83633;BME280;73595;53.084;6.696;2023-11-19T00:19:09;100623.00;;;10.46;100.00
83633;BME280;73595;53.084;6.696;2023-11-19T00:21:35;100620.53;;;10.45;100.00
83633;BME280;73595;53.084;6.696;2023-11-19T00:24:01;100612.34;;;10.54;100.00
83633;BME280;73595;53.084;6.696;2023-11-19T00:26:26;100602.63;;;10.47;100.00
83633;BME280;73595;53.084;6.696;2023-11-19T00:28:52;100598.47;;;10.52;100.00
83633;BME280;73595;53.084;6.696;2023-11-19T00:31:17;100596.75;;;10.60;100.00
83633;BME280;73595;53.084;6.696;2023-11-19T00:33:43;100593.22;;;10.67;100.00
83633;BME280;73595;53.084;6.696;2023-11-19T00:36:09;100592.53;;;10.73;100.00
83633;BME280;73595;53.084;6.696;2023-11-19T00:38:34;100588.41;;;10.71;100.00
83633;BME280;73595;53.084;6.696;2023-11-19T00:40:59;100593.34;;;10.74;100.00
83633;BME280;73595;53.084;6.696;2023-11-19T00:43:25;100589.47;;;10.84;100.00
83633;BME280;73595;53.084;6.696;2023-11-19T00:45:51;100588.25;;;10.95;100.00
83633;BME280;73595;53.084;6.696;2023-11-19T00:48:16;100587.38;;;10.95;100.00
83633;BME280;73595;53.084;6.696;2023-11-19T00:50:42;100579.38;;;11.03;99.87
83633;BME280;73595;53.084;6.696;2023-11-19T00:53:09;100576.03;;;11.09;99.88
83633;BME280;73595;53.084;6.696;2023-11-19T00:55:34;100578.22;;;11.20;99.61
83633;BME280;73595;53.084;6.696;2023-11-19T00:58:00;100567.72;;;11.27;99.28
83633;BME280;73595;53.084;6.696;2023-11-19T01:00:25;100564.31;;;11.18;99.11
83633;BME280;73595;53.084;6.696;2023-11-19T01:02:52;100556.28;;;11.26;99.11
83633;BME280;73595;53.084;6.696;2023-11-19T01:05:17;100561.88;;;11.31;98.80
83633;BME280;73595;53.084;6.696;2023-11-19T01:07:46;100546.63;;;11.33;99.09
83633;BME280;73595;53.084;6.696;2023-11-19T01:10:12;100557.22;;;11.33;98.82
83633;BME280;73595;53.084;6.696;2023-11-19T01:12:37;100545.03;;;11.39;99.01
83633;BME280;73595;53.084;6.696;2023-11-19T01:15:03;100544.88;;;11.41;98.90
83633;BME280;73595;53.084;6.696;2023-11-19T01:17:28;100535.72;;;11.43;98.74
83633;BME280;73595;53.084;6.696;2023-11-19T01:19:56;100555.50;;;11.41;98.42
83633;BME280;73595;53.084;6.696;2023-11-19T01:22:21;100562.63;;;11.40;98.36
83633;BME280;73595;53.084;6.696;2023-11-19T01:24:47;100551.13;;;11.48;98.67
83633;BME280;73595;53.084;6.696;2023-11-19T01:27:12;100559.06;;;11.48;98.70
83633;BME280;73595;53.084;6.696;2023-11-19T01:29:37;100555.59;;;11.47;98.30
83633;BME280;73595;53.084;6.696;2023-11-19T01:32:03;100565.63;;;11.52;98.53
83633;BME280;73595;53.084;6.696;2023-11-19T01:34:28;100563.72;;;11.46;98.26
83633;BME280;73595;53.084;6.696;2023-11-19T01:36:53;100566.66;;;11.51;98.41
83633;BME280;73595;53.084;6.696;2023-11-19T01:39:19;100570.78;;;11.53;98.37
83633;BME280;73595;53.084;6.696;2023-11-19T01:41:45;100558.88;;;11.49;98.19
83633;BME280;73595;53.084;6.696;2023-11-19T01:44:11;100560.25;;;11.60;98.00
83633;BME280;73595;53.084;6.696;2023-11-19T01:46:37;100551.84;;;11.56;97.73
83633;BME280;73595;53.084;6.696;2023-11-19T01:49:04;100546.19;;;11.59;97.46
83633;BME280;73595;53.084;6.696;2023-11-19T01:51:32;100549.00;;;11.58;97.72
83633;BME280;73595;53.084;6.696;2023-11-19T01:53:58;100538.75;;;11.55;97.57
83633;BME280;73595;53.084;6.696;2023-11-19T01:56:23;100550.28;;;11.62;97.07
83633;BME280;73595;53.084;6.696;2023-11-19T01:58:50;100537.84;;;11.62;97.16
83633;BME280;73595;53.084;6.696;2023-11-19T02:01:15;100532.25;;;11.57;97.03
83633;BME280;73595;53.084;6.696;2023-11-19T02:03:46;100521.19;;;11.54;97.48
83633;BME280;73595;53.084;6.696;2023-11-19T02:06:12;100520.38;;;11.53;97.43
83633;BME280;73595;53.084;6.696;2023-11-19T02:08:37;100524.00;;;11.52;97.07
83633;BME280;73595;53.084;6.696;2023-11-19T02:11:03;100518.78;;;11.59;96.61
83633;BME280;73595;53.084;6.696;2023-11-19T02:13:31;100517.44;;;11.48;96.94
83633;BME280;73595;53.084;6.696;2023-11-19T02:15:57;100508.38;;;11.43;97.09
83633;BME280;73595;53.084;6.696;2023-11-19T02:18:26;100509.59;;;11.40;97.05
83633;BME280;73595;53.084;6.696;2023-11-19T02:20:58;100505.53;;;11.44;96.67
83633;BME280;73595;53.084;6.696;2023-11-19T02:23:25;100521.84;;;11.41;96.86
83633;BME280;73595;53.084;6.696;2023-11-19T02:25:54;100527.31;;;11.39;96.69
83633;BME280;73595;53.084;6.696;2023-11-19T02:28:23;100534.53;;;11.46;96.67
83633;BME280;73595;53.084;6.696;2023-11-19T02:30:48;100542.13;;;11.49;96.15
83633;BME280;73595;53.084;6.696;2023-11-19T02:33:14;100536.84;;;11.49;96.50
83633;BME280;73595;53.084;6.696;2023-11-19T02:35:40;100543.97;;;11.48;96.46
83633;BME280;73595;53.084;6.696;2023-11-19T02:38:05;100536.00;;;11.48;96.25
83633;BME280;73595;53.084;6.696;2023-11-19T02:40:33;100536.94;;;11.41;96.76
83633;BME280;73595;53.084;6.696;2023-11-19T02:42:58;100537.19;;;11.46;96.62
83633;BME280;73595;53.084;6.696;2023-11-19T02:45:24;100533.34;;;11.48;96.22
83633;BME280;73595;53.084;6.696;2023-11-19T02:47:50;100531.88;;;11.46;96.40
83633;BME280;73595;53.084;6.696;2023-11-19T02:50:15;100523.56;;;11.49;95.88
83633;BME280;73595;53.084;6.696;2023-11-19T02:52:44;100519.28;;;11.48;95.69
83633;BME280;73595;53.084;6.696;2023-11-19T02:55:11;100512.69;;;11.44;96.10
83633;BME280;73595;53.084;6.696;2023-11-19T02:57:41;100516.53;;;11.41;96.02
83633;BME280;73595;53.084;6.696;2023-11-19T03:00:20;100506.56;;;11.43;95.93
83633;BME280;73595;53.084;6.696;2023-11-19T03:02:50;100503.06;;;11.43;95.75
83633;BME280;73595;53.084;6.696;2023-11-19T03:05:24;100511.84;;;11.43;96.00
83633;BME280;73595;53.084;6.696;2023-11-19T03:07:49;100513.69;;;11.43;95.80
83633;BME280;73595;53.084;6.696;2023-11-19T03:10:14;100508.81;;;11.46;95.42
83633;BME280;73595;53.084;6.696;2023-11-19T03:12:40;100507.94;;;11.54;94.81
83633;BME280;73595;53.084;6.696;2023-11-19T03:15:06;100499.06;;;11.47;95.30
83633;BME280;73595;53.084;6.696;2023-11-19T03:17:32;100498.69;;;11.50;94.88
83633;BME280;73595;53.084;6.696;2023-11-19T03:19:57;100497.88;;;11.49;94.30
83633;BME280;73595;53.084;6.696;2023-11-19T03:22:22;100486.03;;;11.52;94.57
83633;BME280;73595;53.084;6.696;2023-11-19T03:24:50;100490.38;;;11.53;94.19
83633;BME280;73595;53.084;6.696;2023-11-19T03:27:15;100493.66;;;11.55;94.14
83633;BME280;73595;53.084;6.696;2023-11-19T03:29:41;100505.09;;;11.55;94.00
83633;BME280;73595;53.084;6.696;2023-11-19T03:32:06;100496.59;;;11.60;93.64
83633;BME280;73595;53.084;6.696;2023-11-19T03:34:31;100502.06;;;11.58;93.91
83633;BME280;73595;53.084;6.696;2023-11-19T03:36:57;100487.25;;;11.49;94.32
83633;BME280;73595;53.084;6.696;2023-11-19T03:39:22;100491.72;;;11.49;94.28
83633;BME280;73595;53.084;6.696;2023-11-19T03:41:50;100484.78;;;11.48;94.07
83633;BME280;73595;53.084;6.696;2023-11-19T03:44:15;100481.75;;;11.51;93.96
83633;BME280;73595;53.084;6.696;2023-11-19T03:46:41;100481.56;;;11.52;93.81
83633;BME280;73595;53.084;6.696;2023-11-19T03:49:07;100478.09;;;11.52;93.95
83633;BME280;73595;53.084;6.696;2023-11-19T03:51:32;100473.16;;;11.49;93.70
83633;BME280;73595;53.084;6.696;2023-11-19T03:53:59;100490.44;;;11.45;94.10
83633;BME280;73595;53.084;6.696;2023-11-19T03:56:24;100491.09;;;11.47;93.86
83633;BME280;73595;53.084;6.696;2023-11-19T03:58:49;100483.41;;;11.52;93.57
83633;BME280;73595;53.084;6.696;2023-11-19T04:01:15;100482.56;;;11.51;93.46
83633;BME280;73595;53.084;6.696;2023-11-19T04:03:40;100487.06;;;11.51;93.40
83633;BME280;73595;53.084;6.696;2023-11-19T04:06:05;100480.31;;;11.48;93.44
83633;BME280;73595;53.084;6.696;2023-11-19T04:08:31;100469.31;;;11.51;93.42
83633;BME280;73595;53.084;6.696;2023-11-19T04:10:56;100470.94;;;11.52;93.08
83633;BME280;73595;53.084;6.696;2023-11-19T04:13:22;100462.34;;;11.50;92.95
83633;BME280;73595;53.084;6.696;2023-11-19T04:15:49;100469.22;;;11.45;92.88
83633;BME280;73595;53.084;6.696;2023-11-19T04:18:14;100463.72;;;11.46;92.91
83633;BME280;73595;53.084;6.696;2023-11-19T04:20:40;100461.66;;;11.42;92.70
83633;BME280;73595;53.084;6.696;2023-11-19T04:23:07;100468.50;;;11.36;93.17
83633;BME280;73595;53.084;6.696;2023-11-19T04:25:32;100458.00;;;11.28;93.49
83633;BME280;73595;53.084;6.696;2023-11-19T04:27:58;100470.25;;;11.29;93.16
83633;BME280;73595;53.084;6.696;2023-11-19T04:30:23;100472.72;;;11.30;93.23
83633;BME280;73595;53.084;6.696;2023-11-19T04:32:48;100460.81;;;11.26;93.41
83633;BME280;73595;53.084;6.696;2023-11-19T04:35:14;100466.88;;;11.35;92.78
83633;BME280;73595;53.084;6.696;2023-11-19T04:37:39;100467.69;;;11.35;92.48
83633;BME280;73595;53.084;6.696;2023-11-19T04:40:04;100472.16;;;11.35;92.38
83633;BME280;73595;53.084;6.696;2023-11-19T04:42:30;100461.28;;;11.30;92.48
83633;BME280;73595;53.084;6.696;2023-11-19T04:44:57;100472.91;;;11.29;92.38
83633;BME280;73595;53.084;6.696;2023-11-19T04:47:22;100463.09;;;11.29;92.11
83633;BME280;73595;53.084;6.696;2023-11-19T04:49:47;100471.97;;;11.36;91.60
83633;BME280;73595;53.084;6.696;2023-11-19T04:52:13;100469.59;;;11.27;91.96
83633;BME280;73595;53.084;6.696;2023-11-19T04:54:42;100474.63;;;11.22;92.25
83633;BME280;73595;53.084;6.696;2023-11-19T04:57:09;100425.78;;;10.87;91.91
83633;BME280;73595;53.084;6.696;2023-11-19T04:59:39;100479.38;;;11.26;91.45
83633;BME280;73595;53.084;6.696;2023-11-19T05:02:05;100480.19;;;11.12;92.40
83633;BME280;73595;53.084;6.696;2023-11-19T05:04:30;100482.41;;;11.08;92.31
83633;BME280;73595;53.084;6.696;2023-11-19T05:06:56;100481.41;;;11.09;92.31
83633;BME280;73595;53.084;6.696;2023-11-19T05:09:21;100480.56;;;11.09;92.10
83633;BME280;73595;53.084;6.696;2023-11-19T05:11:46;100487.22;;;11.05;92.41
83633;BME280;73595;53.084;6.696;2023-11-19T05:14:12;100480.72;;;11.07;92.58
83633;BME280;73595;53.084;6.696;2023-11-19T05:16:40;100486.88;;;11.08;92.10
83633;BME280;73595;53.084;6.696;2023-11-19T05:19:06;100478.38;;;11.12;91.48
83633;BME280;73595;53.084;6.696;2023-11-19T05:21:31;100485.88;;;11.09;91.90
83633;BME280;73595;53.084;6.696;2023-11-19T05:23:56;100486.88;;;11.08;91.88
83633;BME280;73595;53.084;6.696;2023-11-19T05:26:22;100483.28;;;11.01;92.69
83633;BME280;73595;53.084;6.696;2023-11-19T05:28:49;100487.75;;;11.00;92.40
83633;BME280;73595;53.084;6.696;2023-11-19T05:31:15;100485.00;;;10.94;93.12
83633;BME280;73595;53.084;6.696;2023-11-19T05:33:40;100501.22;;;10.99;92.70
83633;BME280;73595;53.084;6.696;2023-11-19T05:36:07;100489.88;;;10.90;92.93
83633;BME280;73595;53.084;6.696;2023-11-19T05:38:33;100482.94;;;10.89;92.83
83633;BME280;73595;53.084;6.696;2023-11-19T05:40:58;100492.34;;;10.92;92.46
83633;BME280;73595;53.084;6.696;2023-11-19T05:43:23;100493.53;;;10.89;92.43
83633;BME280;73595;53.084;6.696;2023-11-19T05:45:49;100486.84;;;10.93;91.78
83633;BME280;73595;53.084;6.696;2023-11-19T05:48:14;100490.16;;;10.95;91.37
83633;BME280;73595;53.084;6.696;2023-11-19T05:50:40;100490.16;;;10.95;91.41
83633;BME280;73595;53.084;6.696;2023-11-19T05:53:05;100490.16;;;10.95;90.92
83633;BME280;73595;53.084;6.696;2023-11-19T05:55:39;100499.09;;;10.94;91.05
83633;BME280;73595;53.084;6.696;2023-11-19T05:58:11;100499.91;;;10.95;90.75
83633;BME280;73595;53.084;6.696;2023-11-19T06:00:40;100514.00;;;10.95;90.77
83633;BME280;73595;53.084;6.696;2023-11-19T06:03:08;100500.19;;;11.00;90.02
83633;BME280;73595;53.084;6.696;2023-11-19T06:05:33;100515.47;;;10.98;90.38
83633;BME280;73595;53.084;6.696;2023-11-19T06:07:58;100501.84;;;11.01;89.69
83633;BME280;73595;53.084;6.696;2023-11-19T06:10:24;100506.16;;;11.02;89.50
83633;BME280;73595;53.084;6.696;2023-11-19T06:12:59;100508.53;;;10.97;89.76
83633;BME280;73595;53.084;6.696;2023-11-19T06:15:27;100517.19;;;10.91;89.97
83633;BME280;73595;53.084;6.696;2023-11-19T06:17:53;100510.06;;;10.91;89.75
83633;BME280;73595;53.084;6.696;2023-11-19T06:20:19;100510.81;;;11.00;89.17
83633;BME280;73595;53.084;6.696;2023-11-19T06:22:45;100508.72;;;10.95;89.42
83633;BME280;73595;53.084;6.696;2023-11-19T06:25:10;100511.25;;;10.89;89.42
83633;BME280;73595;53.084;6.696;2023-11-19T06:27:36;100503.34;;;10.80;89.94
83633;BME280;73595;53.084;6.696;2023-11-19T06:30:01;100517.09;;;10.84;89.64
83633;BME280;73595;53.084;6.696;2023-11-19T06:32:27;100510.50;;;10.80;89.82
83633;BME280;73595;53.084;6.696;2023-11-19T06:34:53;100506.31;;;10.85;89.25
83633;BME280;73595;53.084;6.696;2023-11-19T06:37:18;100511.25;;;10.89;89.14
83633;BME280;73595;53.084;6.696;2023-11-19T06:39:44;100518.19;;;10.90;88.60
83633;BME280;73595;53.084;6.696;2023-11-19T06:42:12;100504.84;;;10.83;89.10
83633;BME280;73595;53.084;6.696;2023-11-19T06:44:37;100522.84;;;10.88;88.65
83633;BME280;73595;53.084;6.696;2023-11-19T06:47:03;100527.16;;;10.89;88.43
83633;BME280;73595;53.084;6.696;2023-11-19T06:49:28;100532.16;;;10.83;88.77
83633;BME280;73595;53.084;6.696;2023-11-19T06:51:53;100527.50;;;10.85;88.32
83633;BME280;73595;53.084;6.696;2023-11-19T06:54:18;100522.91;;;10.79;89.04
83633;BME280;73595;53.084;6.696;2023-11-19T06:56:44;100522.28;;;10.77;89.54
83633;BME280;73595;53.084;6.696;2023-11-19T06:59:12;100526.91;;;10.75;89.36
83633;BME280;73595;53.084;6.696;2023-11-19T07:01:38;100521.63;;;10.75;89.22
83633;BME280;73595;53.084;6.696;2023-11-19T07:04:03;100531.13;;;10.70;90.06
83633;BME280;73595;53.084;6.696;2023-11-19T07:06:34;100525.63;;;10.71;89.67
83633;BME280;73595;53.084;6.696;2023-11-19T07:09:00;100526.34;;;10.65;89.74
83633;BME280;73595;53.084;6.696;2023-11-19T07:11:38;100529.28;;;10.70;88.84
83633;BME280;73595;53.084;6.696;2023-11-19T07:14:03;100518.31;;;10.73;88.90
83633;BME280;73595;53.084;6.696;2023-11-19T07:16:29;100518.22;;;10.67;89.61
83633;BME280;73595;53.084;6.696;2023-11-19T07:18:54;100528.75;;;10.75;89.20
83633;BME280;73595;53.084;6.696;2023-11-19T07:21:20;100522.34;;;10.69;89.22
83633;BME280;73595;53.084;6.696;2023-11-19T07:23:45;100526.16;;;10.67;89.52
83633;BME280;73595;53.084;6.696;2023-11-19T07:26:12;100523.50;;;10.67;89.37
83633;BME280;73595;53.084;6.696;2023-11-19T07:28:37;100532.94;;;10.69;89.14
83633;BME280;73595;53.084;6.696;2023-11-19T07:31:04;100534.13;;;10.67;89.99
83633;BME280;73595;53.084;6.696;2023-11-19T07:33:32;100538.97;;;10.63;90.29
83633;BME280;73595;53.084;6.696;2023-11-19T07:35:57;100536.66;;;10.60;90.10
83633;BME280;73595;53.084;6.696;2023-11-19T07:38:23;100536.47;;;10.62;89.94
83633;BME280;73595;53.084;6.696;2023-11-19T07:40:48;100544.91;;;10.65;89.57
83633;BME280;73595;53.084;6.696;2023-11-19T07:43:13;100547.06;;;10.62;89.75
83633;BME280;73595;53.084;6.696;2023-11-19T07:45:39;100546.09;;;10.63;89.35
83633;BME280;73595;53.084;6.696;2023-11-19T07:48:04;100551.72;;;10.60;89.91
83633;BME280;73595;53.084;6.696;2023-11-19T07:50:31;100557.13;;;10.66;88.97
83633;BME280;73595;53.084;6.696;2023-11-19T07:52:56;100540.22;;;10.67;88.38
83633;BME280;73595;53.084;6.696;2023-11-19T07:55:22;100555.19;;;10.60;88.72
83633;BME280;73595;53.084;6.696;2023-11-19T07:57:47;100558.66;;;10.61;88.69
83633;BME280;73595;53.084;6.696;2023-11-19T08:00:14;100561.81;;;10.64;89.05
83633;BME280;73595;53.084;6.696;2023-11-19T08:02:39;100564.44;;;10.64;89.15
83633;BME280;73595;53.084;6.696;2023-11-19T08:05:04;100557.44;;;10.71;88.34
83633;BME280;73595;53.084;6.696;2023-11-19T08:07:30;100561.72;;;10.72;88.54
83633;BME280;73595;53.084;6.696;2023-11-19T08:09:56;100557.44;;;10.71;88.30
83633;BME280;73595;53.084;6.696;2023-11-19T08:12:21;100569.31;;;10.75;88.07
83633;BME280;73595;53.084;6.696;2023-11-19T08:14:47;100566.84;;;10.74;88.09
83633;BME280;73595;53.084;6.696;2023-11-19T08:17:12;100570.31;;;10.74;88.33
83633;BME280;73595;53.084;6.696;2023-11-19T08:19:37;100559.09;;;10.72;88.55
83633;BME280;73595;53.084;6.696;2023-11-19T08:22:02;100573.63;;;10.76;88.05
83633;BME280;73595;53.084;6.696;2023-11-19T08:24:28;100580.69;;;10.84;87.89
83633;BME280;73595;53.084;6.696;2023-11-19T08:26:53;100572.38;;;10.87;87.37
83633;BME280;73595;53.084;6.696;2023-11-19T08:29:19;100567.06;;;10.87;87.50
83633;BME280;73595;53.084;6.696;2023-11-19T08:31:44;100578.50;;;10.88;87.69
83633;BME280;73595;53.084;6.696;2023-11-19T08:34:10;100582.44;;;10.92;87.16
83633;BME280;73595;53.084;6.696;2023-11-19T08:36:36;100577.78;;;10.94;87.33
83633;BME280;73595;53.084;6.696;2023-11-19T08:39:02;100569.19;;;10.92;87.45
83633;BME280;73595;53.084;6.696;2023-11-19T08:41:28;100585.41;;;10.97;87.26
83633;BME280;73595;53.084;6.696;2023-11-19T08:43:53;100586.75;;;10.93;87.37
83633;BME280;73595;53.084;6.696;2023-11-19T08:46:18;100582.88;;;10.80;89.30
83633;BME280;73595;53.084;6.696;2023-11-19T08:48:43;100594.72;;;10.70;90.16
83633;BME280;73595;53.084;6.696;2023-11-19T08:51:09;100579.03;;;10.60;90.59
83633;BME280;73595;53.084;6.696;2023-11-19T08:53:34;100594.00;;;10.53;91.15
83633;BME280;73595;53.084;6.696;2023-11-19T08:55:59;100587.56;;;10.47;92.01
83633;BME280;73595;53.084;6.696;2023-11-19T08:58:25;100597.84;;;10.42;92.56
83633;BME280;73595;53.084;6.696;2023-11-19T09:00:50;100602.00;;;10.37;93.48
83633;BME280;73595;53.084;6.696;2023-11-19T09:03:16;100604.03;;;10.35;93.53
83633;BME280;73595;53.084;6.696;2023-11-19T09:05:42;100605.16;;;10.40;93.49
83633;BME280;73595;53.084;6.696;2023-11-19T09:08:07;100599.53;;;10.35;93.98
83633;BME280;73595;53.084;6.696;2023-11-19T09:10:33;100604.03;;;10.35;93.99
83633;BME280;73595;53.084;6.696;2023-11-19T09:12:58;100608.63;;;10.41;93.38
83633;BME280;73595;53.084;6.696;2023-11-19T09:15:23;100604.63;;;10.45;93.52
83633;BME280;73595;53.084;6.696;2023-11-19T09:17:49;100600.97;;;10.46;93.11
83633;BME280;73595;53.084;6.696;2023-11-19T09:20:14;100612.41;;;10.46;93.72
83633;BME280;73595;53.084;6.696;2023-11-19T09:22:40;100605.78;;;10.42;93.87
83633;BME280;73595;53.084;6.696;2023-11-19T09:25:06;100607.59;;;10.50;93.19
83633;BME280;73595;53.084;6.696;2023-11-19T09:27:31;100606.41;;;10.52;93.20
83633;BME280;73595;53.084;6.696;2023-11-19T09:29:56;100605.72;;;10.58;92.69
83633;BME280;73595;53.084;6.696;2023-11-19T09:32:23;100593.59;;;10.64;92.43
83633;BME280;73595;53.084;6.696;2023-11-19T09:34:49;100597.19;;;10.71;91.82
83633;BME280;73595;53.084;6.696;2023-11-19T09:37:14;100593.47;;;10.80;91.01
83633;BME280;73595;53.084;6.696;2023-11-19T09:39:39;100594.88;;;10.91;90.71
83633;BME280;73595;53.084;6.696;2023-11-19T09:42:08;100600.63;;;10.95;90.54
83633;BME280;73595;53.084;6.696;2023-11-19T09:44:33;100604.66;;;10.91;90.40
83633;BME280;73595;53.084;6.696;2023-11-19T09:46:58;100594.78;;;10.84;90.88
83633;BME280;73595;53.084;6.696;2023-11-19T09:49:24;100599.06;;;10.85;91.18
83633;BME280;73595;53.084;6.696;2023-11-19T09:51:51;100601.38;;;10.89;90.34
83633;BME280;73595;53.084;6.696;2023-11-19T09:54:16;100598.53;;;10.90;90.59
83633;BME280;73595;53.084;6.696;2023-11-19T09:56:42;100599.38;;;10.91;90.52
83633;BME280;73595;53.084;6.696;2023-11-19T09:59:09;100604.28;;;10.94;90.58
83633;BME280;73595;53.084;6.696;2023-11-19T10:01:35;100607.25;;;10.99;89.77
83633;BME280;73595;53.084;6.696;2023-11-19T10:04:03;100602.56;;;11.01;89.92
83633;BME280;73595;53.084;6.696;2023-11-19T10:06:35;100603.44;;;11.01;89.82
83633;BME280;73595;53.084;6.696;2023-11-19T10:09:00;100605.72;;;11.04;89.59
83633;BME280;73595;53.084;6.696;2023-11-19T10:11:26;100601.72;;;11.08;89.57
83633;BME280;73595;53.084;6.696;2023-11-19T10:13:52;100592.75;;;11.09;89.03
83633;BME280;73595;53.084;6.696;2023-11-19T10:16:18;100598.59;;;11.05;89.64
83633;BME280;73595;53.084;6.696;2023-11-19T10:18:47;100596.56;;;11.07;89.17
83633;BME280;73595;53.084;6.696;2023-11-19T10:21:17;100601.81;;;11.15;89.26
83633;BME280;73595;53.084;6.696;2023-11-19T10:23:49;100598.16;;;11.16;88.83
83633;BME280;73595;53.084;6.696;2023-11-19T10:26:15;100587.19;;;11.19;88.97
83633;BME280;73595;53.084;6.696;2023-11-19T10:28:41;100597.44;;;11.22;89.73
83633;BME280;73595;53.084;6.696;2023-11-19T10:31:11;100594.50;;;11.17;89.53
83633;BME280;73595;53.084;6.696;2023-11-19T10:33:38;100598.16;;;11.16;89.04
83633;BME280;73595;53.084;6.696;2023-11-19T10:36:05;100603.34;;;11.09;90.12
83633;BME280;73595;53.084;6.696;2023-11-19T10:38:31;100605.53;;;11.06;91.41
83633;BME280;73595;53.084;6.696;2023-11-19T10:40:57;100598.28;;;11.00;91.27
83633;BME280;73595;53.084;6.696;2023-11-19T10:43:24;100592.53;;;10.96;91.45
83633;BME280;73595;53.084;6.696;2023-11-19T10:45:49;100597.53;;;10.91;91.79
83633;BME280;73595;53.084;6.696;2023-11-19T10:48:16;100603.28;;;10.95;91.88
83633;BME280;73595;53.084;6.696;2023-11-19T10:50:42;100597.97;;;10.95;91.54
83633;BME280;73595;53.084;6.696;2023-11-19T10:53:09;100591.72;;;10.96;90.73
83633;BME280;73595;53.084;6.696;2023-11-19T10:55:36;100595.00;;;10.98;91.13
83633;BME280;73595;53.084;6.696;2023-11-19T10:58:06;100595.34;;;10.95;91.42
83633;BME280;73595;53.084;6.696;2023-11-19T11:03:17;100600.59;;;10.80;92.50
83633;BME280;73595;53.084;6.696;2023-11-19T11:05:43;100582.09;;;10.72;92.88
83633;BME280;73595;53.084;6.696;2023-11-19T11:08:15;100598.53;;;10.67;93.29
83633;BME280;73595;53.084;6.696;2023-11-19T11:10:45;100593.91;;;10.69;93.31
83633;BME280;73595;53.084;6.696;2023-11-19T11:13:16;100593.53;;;10.72;93.31
83633;BME280;73595;53.084;6.696;2023-11-19T11:15:45;100590.00;;;10.80;93.27
83633;BME280;73595;53.084;6.696;2023-11-19T11:18:30;100590.69;;;10.97;92.38
83633;BME280;73595;53.084;6.696;2023-11-19T11:21:13;100590.28;;;11.08;92.41
83633;BME280;73595;53.084;6.696;2023-11-19T11:24:12;100588.56;;;11.15;92.36
83633;BME280;73595;53.084;6.696;2023-11-19T11:32:43;100580.44;;;11.31;91.51
83633;BME280;73595;53.084;6.696;2023-11-19T11:39:05;100575.03;;;11.25;91.04
83633;BME280;73595;53.084;6.696;2023-11-19T11:50:53;100570.00;;;11.15;90.72
83633;BME280;73595;53.084;6.696;2023-11-19T11:53:44;100569.34;;;11.13;91.59
83633;BME280;73595;53.084;6.696;2023-11-19T11:56:32;100567.16;;;11.17;90.50
83633;BME280;73595;53.084;6.696;2023-11-19T11:59:07;100567.09;;;11.25;89.19
83633;BME280;73595;53.084;6.696;2023-11-19T12:01:33;100566.53;;;11.29;90.32
83633;BME280;73595;53.084;6.696;2023-11-19T12:03:58;100578.59;;;11.17;91.30
83633;BME280;73595;53.084;6.696;2023-11-19T12:06:26;100567.63;;;11.20;91.69
83633;BME280;73595;53.084;6.696;2023-11-19T12:09:07;100560.56;;;11.12;92.31
83633;BME280;73595;53.084;6.696;2023-11-19T12:12:22;100563.03;;;11.14;91.94
83633;BME280;73595;53.084;6.696;2023-11-19T12:15:28;100567.19;;;11.31;91.79
83633;BME280;73595;53.084;6.696;2023-11-19T12:18:06;100570.84;;;11.45;90.75
83633;BME280;73595;53.084;6.696;2023-11-19T12:21:09;100569.13;;;11.52;91.67
83633;BME280;73595;53.084;6.696;2023-11-19T12:24:10;100569.69;;;11.48;92.37
83633;BME280;73595;53.084;6.696;2023-11-19T12:26:39;100558.97;;;11.41;90.70
83633;BME280;73595;53.084;6.696;2023-11-19T12:29:05;100562.63;;;11.40;91.38
83633;BME280;73595;53.084;6.696;2023-11-19T12:31:31;100559.31;;;11.38;90.91
83633;BME280;73595;53.084;6.696;2023-11-19T12:34:00;100557.69;;;11.37;89.69
83633;BME280;73595;53.084;6.696;2023-11-19T12:39:31;100559.31;;;11.38;90.47
83633;BME280;73595;53.084;6.696;2023-11-19T12:42:19;100564.28;;;11.41;89.95
83633;BME280;73595;53.084;6.696;2023-11-19T12:45:34;100558.78;;;11.43;89.79
83633;BME280;73595;53.084;6.696;2023-11-19T12:48:41;100559.59;;;11.43;90.20
83633;BME280;73595;53.084;6.696;2023-11-19T12:51:33;100564.09;;;11.43;89.23
83633;BME280;73595;53.084;6.696;2023-11-19T12:54:04;100559.59;;;11.43;88.44
83633;BME280;73595;53.084;6.696;2023-11-19T12:56:36;100550.34;;;11.39;88.91
83633;BME280;73595;53.084;6.696;2023-11-19T12:59:16;100554.31;;;11.43;88.75
83633;BME280;73595;53.084;6.696;2023-11-19T13:02:03;100556.31;;;11.41;89.07
83633;BME280;73595;53.084;6.696;2023-11-19T13:04:37;100556.75;;;11.45;87.52
83633;BME280;73595;53.084;6.696;2023-11-19T13:07:20;100557.25;;;11.48;88.35
83633;BME280;73595;53.084;6.696;2023-11-19T13:10:00;100546.09;;;11.53;87.73
83633;BME280;73595;53.084;6.696;2023-11-19T13:13:09;100556.94;;;11.58;87.05
83633;BME280;73595;53.084;6.696;2023-11-19T13:15:39;100555.94;;;11.59;86.97
83633;BME280;73595;53.084;6.696;2023-11-19T13:18:45;100558.44;;;11.60;86.11
83633;BME280;73595;53.084;6.696;2023-11-19T13:21:21;100562.91;;;11.60;86.34